Time;durP1;ratioP1;P1;durP2;ratioP2;P2;SDS_P1;SDS_P2;PMS_P1;PMS_P2;Temp;Humidity;BMP_temperature;BMP_pressure;BME280_temperature;BME280_humidity;BME280_pressure;Samples;Min_cycle;Max_cycle;Signal;HPM_P1;HPM_P2
2023/09/12 00:01:56;;;;;;;29.00;10.57;;;;;;;;;;5034045;28;20076;-67
2023/09/12 00:04:21;;;;;;;22.80;10.87;;;;;;;;;;5033924;28;20025;-67
2023/09/12 00:06:46;;;;;;;20.63;11.33;;;;;;;;;;5034142;28;20045;-67
2023/09/12 00:09:12;;;;;;;19.13;11.50;;;;;;;;;;5033999;28;20053;-66
2023/09/12 00:11:37;;;;;;;15.68;10.10;;;;;;;;;;5033462;28;20108;-67
2023/09/12 00:14:02;;;;;;;18.43;11.13;;;;;;;;;;5033880;28;20540;-67
2023/09/12 00:16:28;;;;;;;18.83;10.80;;;;;;;;;;5033790;28;20734;-67
2023/09/12 00:18:53;;;;;;;21.83;11.53;;;;;;;;;;5033558;28;20018;-67
2023/09/12 00:21:18;;;;;;;14.57;10.20;;;;;;;;;;5033568;28;20119;-67
2023/09/12 00:23:43;;;;;;;20.63;11.60;;;;;;;;;;5033417;28;20270;-68
2023/09/12 00:26:09;;;;;;;21.48;10.80;;;;;;;;;;5033845;28;20301;-67
2023/09/12 00:28:34;;;;;;;18.53;11.27;;;;;;;;;;5033445;28;20029;-67
2023/09/12 00:30:59;;;;;;;22.35;11.75;;;;;;;;;;5032703;28;20620;-67
2023/09/12 00:33:24;;;;;;;16.63;11.43;;;;;;;;;;5033467;28;20028;-67
2023/09/12 00:35:49;;;;;;;21.83;10.33;;;;;;;;;;5033427;28;20262;-67
2023/09/12 00:38:15;;;;;;;17.67;10.90;;;;;;;;;;5033343;28;20091;-67
2023/09/12 00:40:40;;;;;;;22.93;11.43;;;;;;;;;;5033410;28;20028;-66
2023/09/12 00:43:05;;;;;;;23.07;11.77;;;;;;;;;;5033373;28;20746;-67
2023/09/12 00:45:30;;;;;;;17.97;12.20;;;;;;;;;;5033019;28;20030;-67
2023/09/12 00:47:57;;;;;;;17.60;10.83;;;;;;;;;;5033281;28;20063;-67
2023/09/12 00:50:24;;;;;;;19.60;10.95;;;;;;;;;;5032952;28;20034;-67
2023/09/12 00:52:49;;;;;;;15.88;10.55;;;;;;;;;;5033243;28;20117;-67
2023/09/12 00:55:15;;;;;;;24.97;11.57;;;;;;;;;;5033246;28;20089;-67
2023/09/12 00:57:40;;;;;;;17.30;11.40;;;;;;;;;;5032810;28;20297;-67
2023/09/12 01:00:12;;;;;;;16.92;10.93;;;;;;;;;;5033145;28;20025;-67
2023/09/12 01:02:41;;;;;;;25.10;11.00;;;;;;;;;;5033167;28;20021;-67
2023/09/12 01:05:07;;;;;;;18.52;11.23;;;;;;;;;;5032805;28;20025;-67
2023/09/12 01:07:32;;;;;;;18.35;10.75;;;;;;;;;;5033079;28;20147;-67
2023/09/12 01:09:57;;;;;;;22.50;11.60;;;;;;;;;;5032697;28;20504;-67
2023/09/12 01:12:22;;;;;;;24.93;11.33;;;;;;;;;;5032859;28;20024;-67
2023/09/12 01:14:48;;;;;;;24.07;11.97;;;;;;;;;;5032976;28;20032;-67
2023/09/12 01:17:13;;;;;;;28.20;13.60;;;;;;;;;;5032544;28;20261;-67
2023/09/12 01:19:38;;;;;;;25.80;11.63;;;;;;;;;;5032436;28;20022;-67
2023/09/12 01:22:14;;;;;;;18.87;11.17;;;;;;;;;;5032858;28;20308;-67
2023/09/12 01:24:42;;;;;;;18.83;10.70;;;;;;;;;;5025654;28;20258;-67
2023/09/12 01:27:13;;;;;;;15.13;9.82;;;;;;;;;;5032735;28;20044;-67
2023/09/12 01:29:38;;;;;;;17.88;10.95;;;;;;;;;;5032735;28;20056;-67
2023/09/12 01:32:04;;;;;;;18.80;11.30;;;;;;;;;;5032543;28;20045;-67
2023/09/12 01:34:29;;;;;;;26.25;10.85;;;;;;;;;;5036642;28;20448;-67
2023/09/12 01:36:54;;;;;;;23.87;10.67;;;;;;;;;;5036844;28;20022;-67
2023/09/12 01:39:21;;;;;;;23.02;11.40;;;;;;;;;;5036811;28;20317;-67
2023/09/12 01:41:47;;;;;;;19.53;10.10;;;;;;;;;;5036657;28;20029;-67
2023/09/12 01:44:14;;;;;;;16.85;10.63;;;;;;;;;;5036716;28;20262;-67
2023/09/12 01:46:39;;;;;;;20.58;11.65;;;;;;;;;;5036369;28;20018;-67
2023/09/12 01:49:05;;;;;;;17.50;10.77;;;;;;;;;;5036650;28;20532;-67
2023/09/12 01:51:31;;;;;;;19.38;11.77;;;;;;;;;;5036503;28;20109;-67
2023/09/12 01:53:57;;;;;;;23.30;11.50;;;;;;;;;;5036640;28;20021;-67
2023/09/12 01:56:23;;;;;;;25.42;12.15;;;;;;;;;;5035974;28;20117;-67
2023/09/12 01:58:48;;;;;;;23.77;13.05;;;;;;;;;;5036216;28;20021;-67
2023/09/12 02:01:14;;;;;;;25.42;12.80;;;;;;;;;;5036309;28;20397;-67
2023/09/12 02:03:39;;;;;;;33.78;12.93;;;;;;;;;;5036221;28;20037;-67
2023/09/12 02:06:04;;;;;;;22.33;13.03;;;;;;;;;;5036327;28;20013;-67
2023/09/12 02:08:29;;;;;;;28.93;11.13;;;;;;;;;;5036035;28;20033;-67
2023/09/12 02:10:55;;;;;;;26.20;11.47;;;;;;;;;;5036030;28;20279;-67
2023/09/12 02:13:20;;;;;;;20.80;10.60;;;;;;;;;;5036216;28;20029;-67
2023/09/12 02:15:45;;;;;;;20.33;11.50;;;;;;;;;;5036012;28;20029;-67
2023/09/12 02:18:10;;;;;;;20.17;10.83;;;;;;;;;;5036002;28;20362;-67
2023/09/12 02:20:38;;;;;;;17.70;10.60;;;;;;;;;;5036003;28;20064;-67
2023/09/12 02:23:03;;;;;;;21.08;11.27;;;;;;;;;;5035582;28;20481;-67
2023/09/12 02:25:28;;;;;;;21.27;11.63;;;;;;;;;;5036005;28;20037;-67
2023/09/12 02:27:53;;;;;;;25.30;11.23;;;;;;;;;;5035761;28;20021;-67
2023/09/12 02:30:18;;;;;;;25.07;11.83;;;;;;;;;;5035680;28;20060;-67
2023/09/12 02:32:44;;;;;;;22.17;11.10;;;;;;;;;;5035867;28;20469;-67
2023/09/12 02:35:09;;;;;;;22.23;9.93;;;;;;;;;;5035570;28;20031;-67
2023/09/12 02:37:34;;;;;;;21.05;10.45;;;;;;;;;;5035840;28;20345;-67
2023/09/12 02:40:00;;;;;;;21.92;10.13;;;;;;;;;;5035687;28;20030;-67
2023/09/12 02:42:25;;;;;;;17.23;10.03;;;;;;;;;;5035662;28;20056;-67
2023/09/12 02:44:50;;;;;;;21.67;11.40;;;;;;;;;;5035496;28;20254;-67
2023/09/12 02:47:15;;;;;;;25.42;11.05;;;;;;;;;;5035598;28;20493;-67
2023/09/12 02:49:40;;;;;;;17.80;11.33;;;;;;;;;;5035421;28;20036;-67
2023/09/12 02:52:06;;;;;;;21.33;12.77;;;;;;;;;;5035446;28;20373;-75
2023/09/12 02:54:31;;;;;;;19.97;10.67;;;;;;;;;;5035455;28;20041;-75
2023/09/12 02:56:56;;;;;;;18.23;11.30;;;;;;;;;;5035357;28;20029;-75
2023/09/12 02:59:21;;;;;;;26.37;12.27;;;;;;;;;;5034933;28;20049;-75
2023/09/12 03:01:46;;;;;;;18.80;11.65;;;;;;;;;;5035410;28;20460;-75
2023/09/12 03:04:12;;;;;;;24.43;12.73;;;;;;;;;;5035275;28;20025;-75
2023/09/12 03:06:37;;;;;;;19.63;11.90;;;;;;;;;;5034954;28;20025;-75
2023/09/12 03:09:03;;;;;;;19.40;12.70;;;;;;;;;;5035201;28;20473;-75
2023/09/12 03:11:29;;;;;;;20.70;11.48;;;;;;;;;;5035196;28;20072;-74
2023/09/12 03:13:54;;;;;;;20.92;11.93;;;;;;;;;;5026761;28;20029;-75
2023/09/12 03:16:20;;;;;;;20.03;12.43;;;;;;;;;;5034920;28;20025;-75
2023/09/12 03:18:45;;;;;;;26.20;11.27;;;;;;;;;;5034806;28;20267;-75
2023/09/12 03:21:10;;;;;;;20.53;11.03;;;;;;;;;;5034885;28;20389;-75
2023/09/12 03:23:35;;;;;;;24.80;11.27;;;;;;;;;;5034891;28;20033;-75
2023/09/12 03:26:04;;;;;;;28.33;12.10;;;;;;;;;;5034538;28;20135;-75
2023/09/12 03:28:29;;;;;;;22.52;11.85;;;;;;;;;;5034685;28;20025;-75
2023/09/12 03:31:03;;;;;;;18.73;10.85;;;;;;;;;;5034461;28;20183;-75
2023/09/12 03:33:28;;;;;;;22.77;11.32;;;;;;;;;;5034488;28;20029;-76
2023/09/12 03:35:54;;;;;;;18.20;11.83;;;;;;;;;;5034451;28;20029;-73
2023/09/12 03:38:19;;;;;;;21.15;12.43;;;;;;;;;;5034742;28;20485;-74
2023/09/12 03:40:44;;;;;;;18.73;10.80;;;;;;;;;;5034846;28;20461;-75
2023/09/12 03:43:09;;;;;;;16.63;11.10;;;;;;;;;;5034316;28;20275;-75
2023/09/12 03:45:35;;;;;;;24.87;11.97;;;;;;;;;;5034380;28;20056;-76
2023/09/12 03:48:00;;;;;;;24.00;11.67;;;;;;;;;;5034065;28;20673;-75
2023/09/12 03:50:25;;;;;;;19.37;11.83;;;;;;;;;;5034117;28;20021;-75
2023/09/12 03:52:50;;;;;;;28.33;12.83;;;;;;;;;;5034390;28;20025;-74
2023/09/12 03:55:16;;;;;;;21.53;10.73;;;;;;;;;;5033630;28;20022;-75
2023/09/12 03:57:41;;;;;;;20.45;11.80;;;;;;;;;;5034024;28;20053;-75
2023/09/12 04:00:07;;;;;;;20.07;11.23;;;;;;;;;;5034199;28;20477;-75
2023/09/12 04:02:33;;;;;;;22.23;11.68;;;;;;;;;;5034093;28;20384;-76
2023/09/12 04:04:59;;;;;;;19.60;11.87;;;;;;;;;;5034079;28;20116;-76
2023/09/12 04:07:24;;;;;;;23.13;12.82;;;;;;;;;;5034340;28;20025;-75
2023/09/12 04:09:49;;;;;;;20.65;12.25;;;;;;;;;;5034109;28;20590;-74
2023/09/12 04:12:15;;;;;;;22.90;12.40;;;;;;;;;;5033923;28;20473;-75
2023/09/12 04:14:40;;;;;;;21.90;11.27;;;;;;;;;;5033921;28;20075;-75
2023/09/12 04:17:05;;;;;;;23.53;11.93;;;;;;;;;;5033508;28;20064;-75
2023/09/12 04:19:30;;;;;;;17.57;10.40;;;;;;;;;;5033895;28;20022;-75
2023/09/12 04:21:55;;;;;;;25.17;12.37;;;;;;;;;;5033331;28;20028;-74
2023/09/12 04:24:21;;;;;;;29.27;12.30;;;;;;;;;;5033535;28;20025;-73
2023/09/12 04:26:46;;;;;;;22.33;11.30;;;;;;;;;;5033732;28;20022;-73
2023/09/12 04:29:11;;;;;;;22.30;11.75;;;;;;;;;;5032391;28;20026;-74
2023/09/12 04:31:36;;;;;;;19.47;10.93;;;;;;;;;;5032442;28;20490;-75
2023/09/12 04:34:02;;;;;;;21.43;11.47;;;;;;;;;;5033564;28;20017;-75
2023/09/12 04:36:27;;;;;;;27.20;12.25;;;;;;;;;;5033289;28;20124;-74
2023/09/12 04:38:52;;;;;;;22.50;11.53;;;;;;;;;;5033490;28;20021;-74
2023/09/12 04:41:17;;;;;;;22.00;11.50;;;;;;;;;;5033555;28;20377;-74
2023/09/12 04:43:46;;;;;;;18.35;10.85;;;;;;;;;;5033039;28;20259;-75
2023/09/12 04:46:12;;;;;;;18.35;11.52;;;;;;;;;;5015559;28;20025;-75
2023/09/12 04:48:37;;;;;;;21.73;11.98;;;;;;;;;;5033170;28;20040;-74
2023/09/12 04:51:02;;;;;;;21.45;12.15;;;;;;;;;;5033256;28;20021;-75
2023/09/12 04:53:33;;;;;;;18.87;11.73;;;;;;;;;;5033107;28;20021;-75
2023/09/12 04:55:59;;;;;;;19.83;12.10;;;;;;;;;;5033018;28;20300;-74
2023/09/12 04:58:24;;;;;;;25.73;13.17;;;;;;;;;;5033293;28;20052;-75
2023/09/12 05:00:49;;;;;;;25.27;13.13;;;;;;;;;;5033047;28;20032;-75
2023/09/12 05:03:14;;;;;;;25.63;12.03;;;;;;;;;;5032872;28;20029;-75
2023/09/12 05:05:39;;;;;;;30.00;12.87;;;;;;;;;;5033107;28;20087;-75
2023/09/12 05:08:05;;;;;;;20.87;11.70;;;;;;;;;;5031994;28;20025;-74
2023/09/12 05:10:31;;;;;;;20.60;11.35;;;;;;;;;;5033019;28;20288;-74
2023/09/12 05:12:56;;;;;;;23.83;11.75;;;;;;;;;;5032800;28;20025;-67
2023/09/12 05:15:21;;;;;;;21.98;12.07;;;;;;;;;;5033021;28;20026;-67
2023/09/12 05:17:46;;;;;;;19.90;11.87;;;;;;;;;;5032917;28;20381;-66
2023/09/12 05:20:11;;;;;;;18.30;12.17;;;;;;;;;;5032917;28;20184;-67
2023/09/12 05:22:37;;;;;;;20.03;12.60;;;;;;;;;;5032559;28;20298;-67
2023/09/12 05:25:02;;;;;;;24.30;13.87;;;;;;;;;;5032932;28;20151;-67
2023/09/12 05:27:27;;;;;;;24.93;12.37;;;;;;;;;;5032818;28;20278;-67
2023/09/12 05:29:52;;;;;;;24.40;12.03;;;;;;;;;;5032399;28;20757;-67
2023/09/12 05:32:18;;;;;;;20.53;12.77;;;;;;;;;;5033217;28;20279;-65
2023/09/12 05:34:45;;;;;;;25.80;13.70;;;;;;;;;;5032671;28;20026;-74
2023/09/12 05:37:10;;;;;;;22.83;12.88;;;;;;;;;;5033001;28;20022;-74
2023/09/12 05:39:35;;;;;;;19.33;12.70;;;;;;;;;;5033153;28;20379;-74
2023/09/12 05:42:00;;;;;;;23.10;14.13;;;;;;;;;;5033049;28;20606;-75
2023/09/12 05:44:25;;;;;;;31.77;14.77;;;;;;;;;;5033053;28;20071;-74
2023/09/12 05:46:51;;;;;;;27.50;13.87;;;;;;;;;;5033149;28;20026;-75
2023/09/12 05:49:16;;;;;;;26.40;12.57;;;;;;;;;;5033167;28;20262;-75
2023/09/12 05:51:42;;;;;;;23.25;12.48;;;;;;;;;;5032674;28;20083;-75
2023/09/12 05:54:08;;;;;;;24.67;12.25;;;;;;;;;;5032958;28;20018;-73
2023/09/12 05:56:33;;;;;;;37.05;13.60;;;;;;;;;;5032911;28;20484;-73
2023/09/12 05:58:58;;;;;;;22.15;12.50;;;;;;;;;;5032879;28;20022;-73
2023/09/12 06:01:23;;;;;;;17.63;12.03;;;;;;;;;;5015235;28;20030;-73
2023/09/12 06:03:49;;;;;;;29.70;13.10;;;;;;;;;;5033246;28;20274;-76
2023/09/12 06:06:14;;;;;;;20.57;12.33;;;;;;;;;;5015143;28;20255;-72
2023/09/12 06:08:39;;;;;;;21.38;13.15;;;;;;;;;;5032873;28;20032;-71
2023/09/12 06:11:04;;;;;;;20.13;12.53;;;;;;;;;;5033020;28;20041;-71
2023/09/12 06:13:32;;;;;;;16.60;11.43;;;;;;;;;;5032832;28;20525;-71
2023/09/12 06:15:57;;;;;;;20.02;11.95;;;;;;;;;;5032644;28;20024;-71
2023/09/12 06:18:23;;;;;;;24.38;12.63;;;;;;;;;;5033411;28;20021;-71
2023/09/12 06:20:49;;;;;;;23.83;12.10;;;;;;;;;;5036797;28;20037;-69
2023/09/12 06:23:14;;;;;;;28.88;11.90;;;;;;;;;;5036388;28;20026;-69
2023/09/12 06:25:39;;;;;;;30.00;13.13;;;;;;;;;;5036401;28;20389;-69
2023/09/12 06:28:05;;;;;;;22.50;11.40;;;;;;;;;;5036562;28;20025;-68
2023/09/12 06:30:30;;;;;;;24.00;11.95;;;;;;;;;;5035963;28;20045;-68
2023/09/12 06:32:55;;;;;;;20.10;12.13;;;;;;;;;;5035972;28;20024;-68
2023/09/12 06:35:21;;;;;;;22.63;13.03;;;;;;;;;;5036461;28;20017;-68
2023/09/12 06:37:47;;;;;;;21.30;12.67;;;;;;;;;;5035554;28;20147;-68
2023/09/12 06:40:12;;;;;;;23.08;10.15;;;;;;;;;;5023205;28;20259;-68
2023/09/12 06:42:37;;;;;;;18.40;10.88;;;;;;;;;;5035375;28;20060;-68
2023/09/12 06:45:02;;;;;;;20.87;11.10;;;;;;;;;;5035528;28;20021;-68
2023/09/12 06:47:28;;;;;;;23.63;11.95;;;;;;;;;;5035203;28;20071;-69
2023/09/12 06:49:53;;;;;;;17.03;10.67;;;;;;;;;;5035420;28;20048;-68
2023/09/12 06:52:18;;;;;;;18.93;9.93;;;;;;;;;;5035120;28;20528;-68
2023/09/12 06:54:43;;;;;;;13.57;9.07;;;;;;;;;;5034808;28;20021;-68
2023/09/12 06:57:08;;;;;;;19.03;9.80;;;;;;;;;;5035611;28;20746;-69
2023/09/12 06:59:34;;;;;;;15.90;8.73;;;;;;;;;;5035113;28;20022;-69
2023/09/12 07:01:59;;;;;;;18.45;9.95;;;;;;;;;;5035593;28;20255;-68
2023/09/12 07:04:25;;;;;;;12.57;8.30;;;;;;;;;;5035134;28;20491;-68
2023/09/12 07:06:51;;;;;;;13.02;8.52;;;;;;;;;;5035543;28;20258;-70
2023/09/12 07:09:16;;;;;;;20.55;8.75;;;;;;;;;;5016745;28;20478;-69
2023/09/12 07:11:41;;;;;;;17.20;8.82;;;;;;;;;;5035081;28;20021;-69
2023/09/12 07:14:07;;;;;;;18.87;8.60;;;;;;;;;;5035083;28;20025;-69
2023/09/12 07:16:33;;;;;;;18.38;8.68;;;;;;;;;;5035000;28;20021;-69
2023/09/12 07:18:58;;;;;;;17.27;8.27;;;;;;;;;;5035012;28;20071;-69
2023/09/12 07:21:23;;;;;;;12.73;9.50;;;;;;;;;;5035145;28;20314;-74
2023/09/12 07:23:48;;;;;;;18.23;8.70;;;;;;;;;;5034225;28;20025;-75
2023/09/12 07:26:14;;;;;;;13.77;8.90;;;;;;;;;;5034768;28;20022;-76
2023/09/12 07:28:39;;;;;;;15.70;9.10;;;;;;;;;;5034835;28;20800;-72
2023/09/12 07:31:05;;;;;;;17.70;9.45;;;;;;;;;;5033387;28;20050;-70
2023/09/12 07:33:30;;;;;;;17.77;9.10;;;;;;;;;;5034986;28;20029;-70
2023/09/12 07:35:55;;;;;;;15.93;10.35;;;;;;;;;;5034688;28;20504;-71
2023/09/12 07:38:21;;;;;;;22.97;10.67;;;;;;;;;;5034018;28;20083;-70
2023/09/12 07:40:46;;;;;;;20.92;11.90;;;;;;;;;;5034574;28;20017;-71
2023/09/12 07:43:11;;;;;;;19.73;10.70;;;;;;;;;;5034471;28;20027;-70
2023/09/12 07:45:37;;;;;;;19.60;10.07;;;;;;;;;;5034717;28;20040;-70
2023/09/12 07:48:06;;;;;;;14.95;11.23;;;;;;;;;;5034497;28;20504;-70
2023/09/12 07:50:31;;;;;;;21.38;12.02;;;;;;;;;;5034480;28;20021;-70
2023/09/12 07:52:56;;;;;;;22.83;10.90;;;;;;;;;;5033919;28;20022;-70
2023/09/12 07:55:22;;;;;;;24.03;11.90;;;;;;;;;;5034055;28;20067;-70
2023/09/12 07:57:47;;;;;;;24.87;12.20;;;;;;;;;;5033932;28;20088;-70
2023/09/12 08:00:12;;;;;;;18.00;12.00;;;;;;;;;;5034111;28;20017;-70
2023/09/12 08:02:38;;;;;;;26.48;12.43;;;;;;;;;;5034483;28;20063;-70
2023/09/12 08:05:04;;;;;;;21.07;12.23;;;;;;;;;;5034171;28;20101;-70
2023/09/12 08:07:29;;;;;;;20.85;12.25;;;;;;;;;;5033874;28;20254;-70
2023/09/12 08:09:56;;;;;;;22.20;11.70;;;;;;;;;;5034015;28;20097;-70
2023/09/12 08:12:22;;;;;;;18.88;12.05;;;;;;;;;;5034090;28;20112;-71
2023/09/12 08:14:48;;;;;;;18.15;11.50;;;;;;;;;;5033914;28;20049;-71
2023/09/12 08:17:14;;;;;;;18.83;11.57;;;;;;;;;;5033780;28;20496;-70
2023/09/12 08:19:39;;;;;;;18.58;12.32;;;;;;;;;;5033790;28;20021;-70
2023/09/12 08:22:05;;;;;;;22.77;13.00;;;;;;;;;;5033794;28;20100;-70
2023/09/12 08:24:30;;;;;;;17.30;11.90;;;;;;;;;;5033036;28;20047;-70
2023/09/12 08:26:55;;;;;;;18.93;12.03;;;;;;;;;;5033744;28;20089;-70
2023/09/12 08:29:20;;;;;;;19.33;11.27;;;;;;;;;;5032995;28;20436;-70
2023/09/12 08:31:46;;;;;;;20.23;11.63;;;;;;;;;;5033414;28;20124;-70
2023/09/12 08:34:12;;;;;;;18.73;10.50;;;;;;;;;;5033750;28;20250;-70
2023/09/12 08:36:37;;;;;;;29.65;11.95;;;;;;;;;;5033765;28;20029;-70
2023/09/12 08:39:03;;;;;;;21.53;11.33;;;;;;;;;;5032981;28;20088;-70
2023/09/12 08:41:28;;;;;;;18.80;11.73;;;;;;;;;;5033221;28;20029;-70
2023/09/12 08:43:54;;;;;;;18.93;11.57;;;;;;;;;;5033746;28;20504;-70
2023/09/12 08:46:20;;;;;;;16.65;10.05;;;;;;;;;;5033286;28;20112;-70
2023/09/12 08:48:45;;;;;;;22.77;10.98;;;;;;;;;;5033397;28;20104;-70
2023/09/12 08:51:12;;;;;;;15.57;10.40;;;;;;;;;;5033338;28;20036;-70
2023/09/12 08:53:37;;;;;;;14.23;10.55;;;;;;;;;;5032733;28;20457;-70
2023/09/12 08:56:03;;;;;;;18.58;9.90;;;;;;;;;;5033273;28;20052;-70
2023/09/12 08:58:30;;;;;;;18.08;11.00;;;;;;;;;;5033095;28;20014;-70
2023/09/12 09:00:56;;;;;;;17.30;10.40;;;;;;;;;;5033118;28;20057;-70
2023/09/12 09:03:22;;;;;;;15.10;9.82;;;;;;;;;;5033000;28;20060;-70
2023/09/12 09:05:48;;;;;;;19.52;10.50;;;;;;;;;;5033026;28;20064;-70
2023/09/12 09:08:14;;;;;;;17.20;10.48;;;;;;;;;;5032416;28;20167;-70
2023/09/12 09:10:54;;;;;;;16.88;9.88;;;;;;;;;;5032954;28;20381;-70
2023/09/12 09:13:19;;;;;;;14.00;9.02;;;;;;;;;;5032877;28;20094;-70
2023/09/12 09:15:44;;;;;;;13.80;9.47;;;;;;;;;;5033250;28;20316;-68
2023/09/12 09:18:11;;;;;;;16.07;9.43;;;;;;;;;;5032978;28;20255;-68
2023/09/12 09:20:37;;;;;;;16.08;9.98;;;;;;;;;;5033285;28;20025;-68
2023/09/12 09:23:07;;;;;;;18.73;10.00;;;;;;;;;;5033416;28;20104;-68
2023/09/12 09:25:33;;;;;;;19.77;10.65;;;;;;;;;;5033132;28;20025;-76
2023/09/12 09:27:58;;;;;;;19.33;11.70;;;;;;;;;;5033116;28;20492;-77
2023/09/12 09:30:39;;;;;;;19.92;9.82;;;;;;;;;;5015075;28;20077;-78
2023/09/12 09:33:05;;;;;;;;;;;;;;;;;;5033537;28;20385;-78
2023/09/12 09:35:30;;;;;;;17.95;9.30;;;;;;;;;;5031919;28;20280;-78
2023/09/12 09:37:56;;;;;;;18.23;9.68;;;;;;;;;;5032773;28;20024;-78
2023/09/12 09:40:21;;;;;;;16.27;9.07;;;;;;;;;;5033115;28;20030;-78
2023/09/12 09:42:47;;;;;;;14.32;9.60;;;;;;;;;;5015384;28;20108;-78
2023/09/12 09:45:12;;;;;;;15.80;8.87;;;;;;;;;;5015331;28;20063;-79
2023/09/12 09:47:37;;;;;;;13.98;9.25;;;;;;;;;;5033062;28;20254;-76
2023/09/12 09:50:03;;;;;;;13.47;8.27;;;;;;;;;;5032999;28;20021;-68
2023/09/12 09:52:28;;;;;;;17.20;9.25;;;;;;;;;;5032777;28;20409;-73
2023/09/12 09:54:53;;;;;;;12.57;8.60;;;;;;;;;;5035980;28;20028;-76
2023/09/12 09:57:18;;;;;;;15.03;8.63;;;;;;;;;;5036950;28;20346;-76
2023/09/12 09:59:48;;;;;;;15.30;9.60;;;;;;;;;;5036888;28;20250;-72
2023/09/12 10:02:16;;;;;;;13.07;8.07;;;;;;;;;;5036833;28;20482;-74
2023/09/12 10:04:43;;;;;;;14.20;8.63;;;;;;;;;;5036900;28;20105;-75
2023/09/12 10:07:09;;;;;;;14.18;9.65;;;;;;;;;;5037052;28;20492;-71
2023/09/12 10:09:35;;;;;;;14.88;8.50;;;;;;;;;;5036328;28;20026;-72
2023/09/12 10:12:00;;;;;;;13.43;8.55;;;;;;;;;;5036142;28;20018;-70
2023/09/12 10:14:26;;;;;;;14.70;7.93;;;;;;;;;;5036239;28;20496;-73
2023/09/12 10:16:56;;;;;;;17.30;7.35;;;;;;;;;;5036084;28;20104;-75
2023/09/12 10:19:43;;;;;;;16.83;7.50;;;;;;;;;;5038255;28;20072;-72
2023/09/12 10:22:22;;;;;;;12.60;8.68;;;;;;;;;;5036164;28;20140;-73
2023/09/12 10:24:48;;;;;;;14.23;8.07;;;;;;;;;;5035961;28;20112;-73
2023/09/12 10:27:14;;;;;;;14.60;8.45;;;;;;;;;;5035716;28;20021;-73
2023/09/12 10:29:40;;;;;;;15.65;7.90;;;;;;;;;;5035642;28;20021;-73
2023/09/12 10:32:05;;;;;;;13.33;8.07;;;;;;;;;;5035718;28;20080;-74
2023/09/12 10:34:32;;;;;;;15.03;8.70;;;;;;;;;;5036005;28;20021;-77
2023/09/12 10:36:59;;;;;;;15.90;8.23;;;;;;;;;;5035963;28;20105;-73
2023/09/12 10:39:26;;;;;;;11.98;7.78;;;;;;;;;;5036198;28;20499;-74
2023/09/12 10:41:52;;;;;;;12.40;7.57;;;;;;;;;;5035766;28;20477;-76
2023/09/12 10:44:18;;;;;;;14.15;7.82;;;;;;;;;;5036131;28;20033;-77
2023/09/12 10:46:44;;;;;;;11.80;7.50;;;;;;;;;;5035561;28;20029;-75
2023/09/12 10:49:13;;;;;;;13.05;7.32;;;;;;;;;;5035592;28;20480;-75
2023/09/12 10:51:41;;;;;;;15.45;8.65;;;;;;;;;;5036231;28;20029;-72
2023/09/12 10:54:10;;;;;;;14.68;8.25;;;;;;;;;;5035557;28;20559;-76
2023/09/12 10:56:35;;;;;;;13.60;8.82;;;;;;;;;;5035991;28;20530;-75
2023/09/12 10:59:06;;;;;;;15.67;7.93;;;;;;;;;;5036098;28;20017;-74
2023/09/12 11:01:35;;;;;;;9.70;7.28;;;;;;;;;;5035352;28;20022;-69
2023/09/12 11:04:20;;;;;;;16.27;7.60;;;;;;;;;;5035232;28;20389;-69
2023/09/12 11:06:47;;;;;;;13.98;7.82;;;;;;;;;;5006855;28;20529;-69
2023/09/12 11:09:25;;;;;;;13.27;8.07;;;;;;;;;;5034416;28;20080;-69
2023/09/12 11:11:53;;;;;;;9.63;7.03;;;;;;;;;;5034192;28;20021;-69
2023/09/12 11:14:19;;;;;;;11.40;7.95;;;;;;;;;;5034607;28;20021;-69
2023/09/12 11:17:04;;;;;;;15.10;7.35;;;;;;;;;;5033999;28;20029;-69
2023/09/12 11:19:37;;;;;;;14.05;7.28;;;;;;;;;;5034174;28;20021;-69
2023/09/12 11:22:20;;;;;;;12.57;7.57;;;;;;;;;;5033438;28;20033;-69
2023/09/12 11:24:47;;;;;;;13.20;7.55;;;;;;;;;;5034445;28;20237;-69
2023/09/12 11:27:12;;;;;;;12.50;6.82;;;;;;;;;;5034467;28;20385;-69
2023/09/12 11:29:38;;;;;;;10.70;7.17;;;;;;;;;;5034217;28;20025;-68
2023/09/12 11:32:04;;;;;;;13.27;7.55;;;;;;;;;;5034077;28;20302;-69
2023/09/12 11:34:31;;;;;;;15.10;8.02;;;;;;;;;;5026132;28;20025;-69
2023/09/12 11:36:59;;;;;;;12.65;6.85;;;;;;;;;;5033842;28;20370;-68
2023/09/12 11:39:26;;;;;;;14.30;8.68;;;;;;;;;;5033969;28;20027;-68
2023/09/12 11:41:51;;;;;;;11.38;7.07;;;;;;;;;;5034434;28;20124;-68
2023/09/12 11:44:18;;;;;;;11.35;7.38;;;;;;;;;;5034204;28;20485;-68
2023/09/12 11:46:43;;;;;;;12.45;7.32;;;;;;;;;;5033542;28;20032;-68
2023/09/12 11:49:08;;;;;;;15.23;7.47;;;;;;;;;;5034121;28;20021;-68
2023/09/12 11:51:33;;;;;;;16.50;6.97;;;;;;;;;;5033135;28;20025;-68
2023/09/12 11:54:01;;;;;;;16.13;8.03;;;;;;;;;;5033890;28;20316;-68
2023/09/12 11:56:27;;;;;;;10.07;7.18;;;;;;;;;;5033743;28;20039;-68
2023/09/12 11:58:55;;;;;;;12.00;7.50;;;;;;;;;;5033293;28;20021;-68
2023/09/12 12:01:20;;;;;;;13.55;7.07;;;;;;;;;;5034016;28;20469;-68
2023/09/12 12:03:46;;;;;;;15.93;7.60;;;;;;;;;;5033157;28;20037;-68
2023/09/12 12:06:11;;;;;;;16.63;7.28;;;;;;;;;;5033220;28;20054;-68
2023/09/12 12:08:37;;;;;;;15.30;7.10;;;;;;;;;;5033645;28;20481;-68
2023/09/12 12:11:02;;;;;;;12.85;6.50;;;;;;;;;;5033778;28;20678;-72
2023/09/12 12:13:27;;;;;;;12.60;7.30;;;;;;;;;;5033518;28;20021;-72
2023/09/12 12:15:53;;;;;;;10.82;6.63;;;;;;;;;;5024715;28;20465;-73
2023/09/12 12:18:18;;;;;;;11.63;6.87;;;;;;;;;;5033663;28;20021;-73
2023/09/12 12:20:43;;;;;;;14.83;7.27;;;;;;;;;;5032901;28;20351;-73
2023/09/12 12:23:08;;;;;;;12.32;7.65;;;;;;;;;;5033343;28;20255;-73
2023/09/12 12:25:34;;;;;;;13.60;7.50;;;;;;;;;;5033175;28;20029;-72
2023/09/12 12:28:03;;;;;;;13.13;8.13;;;;;;;;;;5033588;28;20025;-73
2023/09/12 12:30:33;;;;;;;14.32;8.00;;;;;;;;;;5032693;28;21627;-72
2023/09/12 12:33:00;;;;;;;18.67;8.63;;;;;;;;;;5033306;28;20017;-73
2023/09/12 12:35:25;;;;;;;15.23;8.70;;;;;;;;;;5032159;28;20052;-73
2023/09/12 12:37:51;;;;;;;15.45;9.15;;;;;;;;;;5033359;28;20018;-73
2023/09/12 12:40:17;;;;;;;13.77;8.32;;;;;;;;;;5033139;28;20014;-73
2023/09/12 12:42:43;;;;;;;17.10;8.30;;;;;;;;;;5032770;28;20397;-73
2023/09/12 12:45:15;;;;;;;20.80;8.23;;;;;;;;;;5032911;28;20486;-72
2023/09/12 12:47:41;;;;;;;12.32;7.85;;;;;;;;;;5032675;28;20026;-72
2023/09/12 12:50:13;;;;;;;17.58;8.98;;;;;;;;;;5032409;28;20021;-70
2023/09/12 12:52:38;;;;;;;17.08;8.27;;;;;;;;;;5032558;28;20083;-72
2023/09/12 12:55:08;;;;;;;14.88;8.23;;;;;;;;;;5032533;28;20057;-71
2023/09/12 12:57:37;;;;;;;19.83;8.57;;;;;;;;;;5032568;28;20022;-69
2023/09/12 13:00:04;;;;;;;17.60;8.95;;;;;;;;;;5032810;28;20034;-73
2023/09/12 13:02:30;;;;;;;21.73;9.20;;;;;;;;;;5032576;28;20036;-74
2023/09/12 13:04:55;;;;;;;18.83;8.47;;;;;;;;;;5031259;28;20025;-71
2023/09/12 13:07:20;;;;;;;17.57;9.10;;;;;;;;;;5032649;28;20040;-71
2023/09/12 13:09:47;;;;;;;15.30;8.43;;;;;;;;;;5032335;28;20021;-71
2023/09/12 13:12:14;;;;;;;19.02;8.85;;;;;;;;;;5033016;28;20392;-71
2023/09/12 13:14:39;;;;;;;14.35;7.93;;;;;;;;;;5032019;28;20025;-71
2023/09/12 13:17:05;;;;;;;13.57;8.30;;;;;;;;;;5032205;28;20397;-71
2023/09/12 13:19:30;;;;;;;16.00;8.60;;;;;;;;;;5031934;28;20266;-71
2023/09/12 13:21:55;;;;;;;16.00;8.93;;;;;;;;;;5032286;28;20405;-71
2023/09/12 13:24:20;;;;;;;11.27;8.18;;;;;;;;;;5032523;28;20473;-71
2023/09/12 13:26:46;;;;;;;12.07;7.63;;;;;;;;;;5031786;28;20033;-70
2023/09/12 13:29:11;;;;;;;16.13;9.43;;;;;;;;;;5012801;28;20349;-71
2023/09/12 13:31:36;;;;;;;16.53;8.70;;;;;;;;;;5032328;28;20305;-71
2023/09/12 13:34:02;;;;;;;17.98;8.68;;;;;;;;;;5031890;28;20312;-71
2023/09/12 13:36:28;;;;;;;14.00;9.02;;;;;;;;;;5031884;28;20018;-71
2023/09/12 13:38:53;;;;;;;14.63;9.15;;;;;;;;;;5015199;28;20025;-71
2023/09/12 13:41:18;;;;;;;18.03;8.40;;;;;;;;;;5032637;28;20022;-71
2023/09/12 13:43:47;;;;;;;14.90;8.90;;;;;;;;;;5033773;28;20266;-71
2023/09/12 13:46:12;;;;;;;16.38;9.48;;;;;;;;;;5032667;28;20734;-71
2023/09/12 13:48:37;;;;;;;23.70;8.98;;;;;;;;;;5031675;28;20033;-71
2023/09/12 13:51:02;;;;;;;19.23;9.07;;;;;;;;;;5031429;28;20018;-71
2023/09/12 13:53:28;;;;;;;17.67;8.50;;;;;;;;;;5031776;28;20359;-71
2023/09/12 13:55:53;;;;;;;13.23;9.20;;;;;;;;;;5031821;28;20262;-71
2023/09/12 13:58:18;;;;;;;13.07;8.00;;;;;;;;;;5032208;28;20100;-71
2023/09/12 14:00:43;;;;;;;17.90;9.53;;;;;;;;;;5031990;28;20263;-71
2023/09/12 14:03:09;;;;;;;17.30;8.13;;;;;;;;;;5031968;28;20033;-71
2023/09/12 14:05:34;;;;;;;17.13;8.60;;;;;;;;;;5031073;28;20465;-71
2023/09/12 14:07:59;;;;;;;11.03;8.33;;;;;;;;;;5031978;28;20273;-71
2023/09/12 14:10:24;;;;;;;12.23;8.60;;;;;;;;;;5031703;28;20493;-71
2023/09/12 14:12:49;;;;;;;14.17;8.57;;;;;;;;;;5031671;28;20060;-71
2023/09/12 14:15:15;;;;;;;13.07;8.47;;;;;;;;;;5032143;28;20261;-71
2023/09/12 14:17:41;;;;;;;15.75;9.50;;;;;;;;;;5031952;28;20025;-71